Time;durP1;ratioP1;P1;durP2;ratioP2;P2;SDS_P1;SDS_P2;PMS_P1;PMS_P2;Temp;Humidity;BMP_temperature;BMP_pressure;BME280_temperature;BME280_humidity;BME280_pressure;Samples;Min_cycle;Max_cycle;Signal;HPM_P1;HPM_P2
2024/01/20 00:02:39;;;;;;;;;;;;;;;26.45;36.30;94863.47;5060980;28;8910;-37
2024/01/20 00:05:07;;;;;;;;;;;;;;;26.44;36.03;94850.19;4984028;28;8916;-37
2024/01/20 00:07:43;;;;;;;;;;;;;;;26.43;35.71;94851.44;4957638;28;7284;-37
2024/01/20 00:10:29;;;;;;;;;;;;;;;26.42;36.19;94853.47;4972206;28;8771;-37
2024/01/20 00:13:19;;;;;;;;;;;;;;;26.45;35.80;94868.22;4979519;28;9132;-37
2024/01/20 00:15:54;;;;;;;;;;;;;;;26.47;35.99;94857.47;4990970;28;9115;-37
2024/01/20 00:18:35;;;;;;;;;;;;;;;26.46;35.83;94856.72;4971070;28;7196;-37
2024/01/20 00:21:14;;;;;;;;;;;;;;;26.46;36.08;94847.69;4980440;28;9447;-38
2024/01/20 00:24:08;;;;;;;;;;;;;;;26.46;35.93;94850.44;4991637;28;6914;-37
2024/01/20 00:26:56;;;;;;;;;;;;;;;26.47;36.54;94855.44;4915045;29;7972;-37
2024/01/20 00:29:40;;;;;;;;;;;;;;;26.45;35.88;94857.19;4884837;29;7040;-37
2024/01/20 00:32:15;;;;;;;;;;;;;;;26.47;35.78;94855.44;4903077;29;9978;-37
2024/01/20 00:34:40;;;;;;;;;;;;;;;26.46;36.15;94856.72;4885091;29;7064;-37
2024/01/20 00:37:10;;;;;;;;;;;;;;;26.45;35.83;94848.91;4895980;29;7010;-38
2024/01/20 00:40:03;;;;;;;;;;;;;;;26.45;36.03;94841.41;4909935;29;9055;-37
2024/01/20 00:42:36;;;;;;;;;;;;;;;26.44;36.20;94841.91;4957368;28;7294;-37
2024/01/20 00:45:03;;;;;;;;;;;;;;;26.44;35.78;94836.41;4958073;28;8700;-37
2024/01/20 00:47:31;;;;;;;;;;;;;;;26.44;36.02;94839.16;4991664;28;7981;-37
2024/01/20 00:49:57;;;;;;;;;;;;;;;26.43;35.47;94840.41;4974236;28;7198;-38
2024/01/20 00:52:45;;;;;;;;;;;;;;;26.40;35.61;94827.63;4986216;28;9047;-37
2024/01/20 00:55:22;;;;;;;;;;;;;;;26.42;35.53;94825.13;4966858;28;7303;-38
2024/01/20 00:57:49;;;;;;;;;;;;;;;26.43;35.93;94829.38;4965454;28;7222;-38
2024/01/20 01:00:17;;;;;;;;;;;;;;;26.39;36.08;94824.13;4984978;28;9513;-37
2024/01/20 01:02:48;;;;;;;;;;;;;;;26.42;35.89;94823.13;5002515;28;8699;-38
2024/01/20 01:05:15;;;;;;;;;;;;;;;26.42;36.25;94819.59;5054606;28;7470;-37
2024/01/20 01:07:53;;;;;;;;;;;;;;;26.38;36.21;94830.88;5029722;28;7390;-38
2024/01/20 01:10:21;;;;;;;;;;;;;;;26.39;35.24;94832.41;5058301;28;7228;-37
2024/01/20 01:12:53;;;;;;;;;;;;;;;26.40;35.47;94833.16;5039449;28;7242;-37
2024/01/20 01:15:30;;;;;;;;;;;;;;;26.40;36.10;94833.91;5086157;28;7445;-38
2024/01/20 01:18:13;;;;;;;;;;;;;;;26.38;36.06;94825.38;5055856;28;7769;-37
2024/01/20 01:20:39;;;;;;;;;;;;;;;26.37;35.71;94823.88;5042341;28;9327;-38
2024/01/20 01:23:06;;;;;;;;;;;;;;;26.40;35.89;94833.16;5069413;28;7191;-38
2024/01/20 01:25:38;;;;;;;;;;;;;;;26.40;36.14;94841.44;5065248;28;7073;-38
2024/01/20 01:28:04;;;;;;;;;;;;;;;26.41;36.06;94840.91;5070723;28;7457;-38
2024/01/20 01:30:31;;;;;;;;;;;;;;;26.42;35.68;94838.91;5050676;28;7191;-38
2024/01/20 01:33:02;;;;;;;;;;;;;;;26.42;36.03;94842.44;5048327;28;6995;-38
2024/01/20 01:35:28;;;;;;;;;;;;;;;26.41;35.87;94835.41;5064031;28;9430;-38
2024/01/20 01:38:11;;;;;;;;;;;;;;;26.41;35.67;94851.94;5066327;28;7279;-38
2024/01/20 01:40:39;;;;;;;;;;;;;;;26.42;35.56;94847.19;5049099;28;8208;-38
2024/01/20 01:43:31;;;;;;;;;;;;;;;26.42;35.38;94847.19;5069769;28;9107;-38
2024/01/20 01:45:57;;;;;;;;;;;;;;;26.40;35.46;94849.69;5073911;28;7665;-38
2024/01/20 01:48:24;;;;;;;;;;;;;;;26.41;35.73;94853.94;5072207;28;8805;-38
2024/01/20 01:51:03;;;;;;;;;;;;;;;26.41;35.72;94853.94;5065615;28;9244;-38
2024/01/20 01:53:39;;;;;;;;;;;;;;;26.42;35.37;94855.47;5060462;28;7062;-38
2024/01/20 01:56:20;;;;;;;;;;;;;;;26.40;35.95;94850.47;5061801;28;7001;-38
2024/01/20 01:58:54;;;;;;;;;;;;;;;26.40;35.20;94857.97;5043647;28;9562;-38
2024/01/20 02:01:27;;;;;;;;;;;;;;;26.39;35.29;94856.47;5056217;28;7157;-38
2024/01/20 02:04:03;;;;;;;;;;;;;;;26.40;35.80;94860.72;5054969;28;7093;-38
2024/01/20 02:06:31;;;;;;;;;;;;;;;26.40;35.62;94861.50;5054739;28;7541;-38
2024/01/20 02:08:59;;;;;;;;;;;;;;;26.37;35.35;94839.66;5073438;28;7221;-38
2024/01/20 02:11:28;;;;;;;;;;;;;;;26.38;36.03;94839.16;5051166;28;6972;-38
2024/01/20 02:14:02;;;;;;;;;;;;;;;26.43;35.68;94837.63;5054998;28;9155;-38
2024/01/20 02:16:37;;;;;;;;;;;;;;;26.40;35.24;94827.63;5052933;28;9489;-38
2024/01/20 02:19:17;;;;;;;;;;;;;;;26.36;35.36;94832.66;5070677;28;7251;-38
2024/01/20 02:21:52;;;;;;;;;;;;;;;26.38;35.38;94822.59;5052826;28;7456;-38
2024/01/20 02:24:26;;;;;;;;;;;;;;;26.41;35.71;94823.59;5054746;28;7276;-38
2024/01/20 02:26:55;;;;;;;;;;;;;;;26.39;35.55;94826.13;5070263;28;6919;-38
2024/01/20 02:29:24;;;;;;;;;;;;;;;26.40;35.73;94827.63;5070363;28;9065;-37
2024/01/20 02:31:56;;;;;;;;;;;;;;;26.39;35.54;94832.41;5063675;28;8451;-37
2024/01/20 02:34:22;;;;;;;;;;;;;;;26.40;35.87;94828.41;5059153;28;7283;-37
2024/01/20 02:36:48;;;;;;;;;;;;;;;26.39;35.39;94832.41;5074019;28;6854;-37
2024/01/20 02:39:16;;;;;;;;;;;;;;;26.38;35.39;94843.94;5067223;28;7085;-37
2024/01/20 02:41:43;;;;;;;;;;;;;;;26.36;35.12;94844.44;5052729;28;9478;-37
2024/01/20 02:44:12;;;;;;;;;;;;;;;26.38;35.39;94852.22;5035527;28;7402;-37
2024/01/20 02:46:38;;;;;;;;;;;;;;;26.36;35.64;94866.50;5055769;28;7229;-37
2024/01/20 02:49:04;;;;;;;;;;;;;;;26.37;35.40;94872.75;5038948;28;7161;-37
2024/01/20 02:51:33;;;;;;;;;;;;;;;26.38;35.52;94868.75;5055837;28;6863;-38
2024/01/20 02:54:04;;;;;;;;;;;;;;;26.39;35.62;94873.00;5069253;28;7172;-37
2024/01/20 02:56:31;;;;;;;;;;;;;;;26.38;35.29;94866.00;5053838;28;6992;-37
2024/01/20 02:58:59;;;;;;;;;;;;;;;26.38;35.83;94857.72;5074280;28;7023;-37
2024/01/20 03:01:30;;;;;;;;;;;;;;;26.38;35.49;94863.25;5055477;28;7066;-37
2024/01/20 03:03:56;;;;;;;;;;;;;;;26.38;34.88;94857.72;5045899;28;7245;-37
2024/01/20 03:06:22;;;;;;;;;;;;;;;26.38;35.15;94854.97;5056772;28;7107;-37
2024/01/20 03:08:49;;;;;;;;;;;;;;;26.37;35.44;94853.47;5061317;28;7124;-37
2024/01/20 03:11:21;;;;;;;;;;;;;;;26.35;34.97;94864.25;5060884;28;7218;-37
2024/01/20 03:13:49;;;;;;;;;;;;;;;26.37;35.57;94870.75;5076544;28;7237;-37
2024/01/20 03:16:17;;;;;;;;;;;;;;;26.37;35.50;94879.03;5054081;28;6980;-37
2024/01/20 03:18:42;;;;;;;;;;;;;;;26.36;35.34;94865.75;5039467;28;7282;-37
2024/01/20 03:21:13;;;;;;;;;;;;;;;26.38;34.59;94874.28;5053975;28;7585;-37
2024/01/20 03:23:45;;;;;;;;;;;;;;;26.38;35.18;94882.56;5065351;28;7111;-37
2024/01/20 03:26:20;;;;;;;;;;;;;;;26.37;35.56;94875.53;5028049;28;7285;-37
2024/01/20 03:28:46;;;;;;;;;;;;;;;26.34;35.30;94879.31;5080390;28;7347;-37
2024/01/20 03:31:22;;;;;;;;;;;;;;;26.35;35.41;94880.78;5041953;28;9200;-37
2024/01/20 03:33:56;;;;;;;;;;;;;;;26.36;35.01;94887.81;5037109;28;7460;-37
2024/01/20 03:36:38;;;;;;;;;;;;;;;26.37;34.78;94900.34;5036602;28;7221;-37
2024/01/20 03:39:04;;;;;;;;;;;;;;;26.35;35.03;94898.09;5028692;28;7252;-38
2024/01/20 03:41:35;;;;;;;;;;;;;;;26.32;35.29;94903.88;5035238;28;7245;-37
2024/01/20 03:44:01;;;;;;;;;;;;;;;26.34;35.72;94904.13;5060620;28;7646;-37
2024/01/20 03:46:26;;;;;;;;;;;;;;;26.33;35.19;94903.38;5051788;28;6989;-37
2024/01/20 03:48:52;;;;;;;;;;;;;;;26.34;35.50;94906.88;5069257;28;7032;-37
2024/01/20 03:51:18;;;;;;;;;;;;;;;26.34;34.90;94906.88;5066526;28;9449;-37
2024/01/20 03:53:44;;;;;;;;;;;;;;;26.32;35.06;94914.91;5055657;28;6843;-37
2024/01/20 03:56:10;;;;;;;;;;;;;;;26.34;35.36;94923.44;5056549;28;7982;-37
2024/01/20 03:58:37;;;;;;;;;;;;;;;26.33;35.58;94916.41;5056569;28;9014;-37
2024/01/20 04:01:10;;;;;;;;;;;;;;;26.33;34.67;94921.91;5053547;28;9045;-37
2024/01/20 04:04:04;;;;;;;;;;;;;;;26.34;35.13;94923.44;5062267;28;6903;-37
2024/01/20 04:06:32;;;;;;;;;;;;;;;26.32;34.85;94925.94;4992495;28;9054;-37
2024/01/20 04:09:08;;;;;;;;;;;;;;;26.32;35.31;94928.69;4972585;28;7001;-37
2024/01/20 04:11:34;;;;;;;;;;;;;;;26.32;35.06;94932.19;4994063;28;7228;-37
2024/01/20 04:14:05;;;;;;;;;;;;;;;26.32;35.28;94937.69;5003115;28;6996;-37
2024/01/20 04:16:40;;;;;;;;;;;;;;;26.25;35.58;94932.72;4983086;28;8669;-38
2024/01/20 04:19:06;;;;;;;;;;;;;;;26.29;35.42;94924.19;4977257;28;6999;-37
2024/01/20 04:21:32;;;;;;;;;;;;;;;26.28;35.46;94933.69;4957580;28;7255;-37
2024/01/20 04:24:07;;;;;;;;;;;;;;;26.23;35.03;94924.16;4970407;28;9765;-37
2024/01/20 04:26:53;;;;;;;;;;;;;;;26.27;34.86;94932.19;4992148;28;7034;-37
2024/01/20 04:29:21;;;;;;;;;;;;;;;26.28;35.40;94928.19;4988156;28;7002;-37
2024/01/20 04:31:49;;;;;;;;;;;;;;;26.28;35.18;94933.69;4975031;28;6988;-37
2024/01/20 04:34:15;;;;;;;;;;;;;;;26.26;35.56;94925.94;4976089;28;7279;-37
2024/01/20 04:36:41;;;;;;;;;;;;;;;26.27;34.98;94926.69;4967758;28;9221;-37
2024/01/20 04:39:09;;;;;;;;;;;;;;;26.24;35.20;94913.91;4999178;28;9064;-38
2024/01/20 04:41:36;;;;;;;;;;;;;;;26.22;35.36;94911.66;4997849;28;7752;-37
2024/01/20 04:44:06;;;;;;;;;;;;;;;26.25;35.44;94923.69;5059489;28;6989;-37
2024/01/20 04:46:32;;;;;;;;;;;;;;;26.25;34.80;94918.16;5040071;28;9059;-37
2024/01/20 04:48:58;;;;;;;;;;;;;;;26.23;35.05;94926.19;5092074;28;7817;-44
2024/01/20 04:51:25;;;;;;;;;;;;;;;26.24;35.46;94927.69;5059223;28;8796;-57
2024/01/20 04:53:52;;;;;;;;;;;;;;;26.20;34.63;94935.47;5064807;28;9356;-57
2024/01/20 04:56:30;;;;;;;;;;;;;;;26.21;34.88;94936.97;5041415;28;7509;-57
2024/01/20 04:58:59;;;;;;;;;;;;;;;26.20;34.70;94943.72;5039044;28;7250;-57
2024/01/20 05:01:34;;;;;;;;;;;;;;;26.14;35.53;94933.44;5061503;28;7384;-57
2024/01/20 05:04:00;;;;;;;;;;;;;;;26.24;35.23;94938.72;5041729;28;7259;-57
2024/01/20 05:06:26;;;;;;;;;;;;;;;26.24;35.09;94941.47;5034205;28;9445;-57
2024/01/20 05:08:53;;;;;;;;;;;;;;;26.24;34.83;94946.97;5063637;28;7678;-57
2024/01/20 05:11:20;;;;;;;;;;;;;;;26.24;35.34;94958.00;5065011;28;7943;-57
2024/01/20 05:13:59;;;;;;;;;;;;;;;26.21;35.34;94953.53;5064595;28;7058;-57
2024/01/20 05:16:33;;;;;;;;;;;;;;;26.26;35.54;94966.53;5070180;28;9438;-57
2024/01/20 05:19:07;;;;;;;;;;;;;;;26.26;35.53;94963.78;5047303;28;9074;-57
2024/01/20 05:21:33;;;;;;;;;;;;;;;26.29;35.61;94971.06;5071761;28;7157;-57
2024/01/20 05:24:01;;;;;;;;;;;;;;;26.28;35.33;94983.31;5058129;28;7627;-57
2024/01/20 05:26:27;;;;;;;;;;;;;;;26.21;35.11;94975.56;5064335;28;7211;-57
2024/01/20 05:29:28;;;;;;;;;;;;;;;26.21;35.51;94978.34;5046504;28;7242;-57
2024/01/20 05:32:14;;;;;;;;;;;;;;;26.24;35.21;94985.59;4969812;28;7429;-57
2024/01/20 05:34:41;;;;;;;;;;;;;;;26.21;34.99;94989.38;4991258;28;7903;-57
2024/01/20 05:37:38;;;;;;;;;;;;;;;26.22;35.91;94991.63;4977927;28;9435;-57
2024/01/20 05:40:19;;;;;;;;;;;;;;;26.19;35.74;94991.88;4949034;28;7099;-57
2024/01/20 05:42:45;;;;;;;;;;;;;;;26.16;35.69;94985.34;4923919;28;7054;-57
2024/01/20 05:45:14;;;;;;;;;;;;;;;26.20;35.33;94991.38;4927913;28;9409;-56
2024/01/20 05:47:40;;;;;;;;;;;;;;;26.24;35.74;94991.84;4946991;28;7001;-57
2024/01/20 05:50:06;;;;;;;;;;;;;;;26.23;35.44;94997.88;4941917;28;7049;-57
2024/01/20 05:52:42;;;;;;;;;;;;;;;26.25;35.34;94998.91;4949578;28;7995;-57
2024/01/20 05:55:08;;;;;;;;;;;;;;;26.25;35.70;94995.38;4937079;29;9459;-57
2024/01/20 05:57:34;;;;;;;;;;;;;;;26.24;34.93;94997.38;4936311;29;9863;-56
2024/01/20 06:00:16;;;;;;;;;;;;;;;26.28;35.61;95002.63;4945018;28;7271;-56
2024/01/20 06:02:42;;;;;;;;;;;;;;;26.24;35.20;94996.63;4946631;28;7378;-38
2024/01/20 06:05:09;;;;;;;;;;;;;;;26.27;35.22;95007.41;4940488;28;7166;-38
2024/01/20 06:07:36;;;;;;;;;;;;;;;26.25;34.95;95000.91;5000845;28;8970;-38
2024/01/20 06:10:06;;;;;;;;;;;;;;;26.26;34.98;95005.13;5022625;28;7228;-39
2024/01/20 06:12:44;;;;;;;;;;;;;;;26.27;35.31;95010.19;5028945;28;7433;-39
2024/01/20 06:15:18;;;;;;;;;;;;;;;26.29;34.87;95017.94;5008778;28;9022;-39
2024/01/20 06:17:46;;;;;;;;;;;;;;;26.29;34.58;95024.22;5079319;28;9597;-39
2024/01/20 06:20:17;;;;;;;;;;;;;;;26.26;34.88;95022.44;5054027;28;7376;-39
2024/01/20 06:22:45;;;;;;;;;;;;;;;26.25;34.56;95025.72;5058386;28;9145;-40
2024/01/20 06:25:15;;;;;;;;;;;;;;;26.27;35.38;95028.72;5047352;28;8761;-41
2024/01/20 06:27:41;;;;;;;;;;;;;;;26.28;34.91;95039.25;5071883;28;6960;-39
2024/01/20 06:30:09;;;;;;;;;;;;;;;26.29;34.61;95046.28;5066281;28;9165;-40
2024/01/20 06:32:37;;;;;;;;;;;;;;;26.31;34.39;95043.00;5063488;28;8794;-39
2024/01/20 06:35:12;;;;;;;;;;;;;;;26.31;35.12;95040.25;5056804;28;9451;-39
2024/01/20 06:37:37;;;;;;;;;;;;;;;26.30;35.01;95039.50;5053614;28;7253;-39
2024/01/20 06:40:11;;;;;;;;;;;;;;;26.31;35.01;95037.50;5050007;28;9453;-39
2024/01/20 06:42:39;;;;;;;;;;;;;;;26.30;34.76;95033.22;5052369;28;7228;-39
2024/01/20 06:45:20;;;;;;;;;;;;;;;26.28;34.76;95042.00;5057979;28;7206;-39
2024/01/20 06:47:48;;;;;;;;;;;;;;;26.27;34.76;95039.75;5060183;28;7317;-40
2024/01/20 06:50:15;;;;;;;;;;;;;;;26.25;34.97;95036.75;5066613;28;6980;-39
2024/01/20 06:52:42;;;;;;;;;;;;;;;26.27;34.44;95039.75;5069721;28;9032;-39
2024/01/20 06:55:15;;;;;;;;;;;;;;;26.28;35.13;95038.47;5057009;28;7837;-40
2024/01/20 06:57:43;;;;;;;;;;;;;;;26.25;35.10;95037.50;5059133;28;7719;-39
2024/01/20 07:00:12;;;;;;;;;;;;;;;26.28;35.16;95038.47;5061267;28;7046;-40
2024/01/20 07:02:49;;;;;;;;;;;;;;;26.28;35.00;95032.97;5063390;28;6907;-39
2024/01/20 07:05:22;;;;;;;;;;;;;;;26.33;34.54;95037.75;5055635;28;8179;-39
2024/01/20 07:07:53;;;;;;;;;;;;;;;26.30;34.92;95033.97;5066089;28;7208;-39
2024/01/20 07:10:47;;;;;;;;;;;;;;;26.31;34.39;95040.25;5053549;28;7264;-39
2024/01/20 07:13:14;;;;;;;;;;;;;;;26.30;34.70;95038.72;4986583;28;7064;-39
2024/01/20 07:15:41;;;;;;;;;;;;;;;26.31;34.61;95045.78;4982566;28;9344;-40
2024/01/20 07:18:16;;;;;;;;;;;;;;;26.29;34.03;95042.75;4962246;28;7324;-40
2024/01/20 07:20:44;;;;;;;;;;;;;;;26.25;34.23;95048.53;4988117;28;7354;-57
2024/01/20 07:23:10;;;;;;;;;;;;;;;26.23;34.69;95051.00;4986647;28;7251;-57
2024/01/20 07:25:42;;;;;;;;;;;;;;;26.25;34.49;95048.53;4992279;28;7686;-58
2024/01/20 07:28:08;;;;;;;;;;;;;;;26.23;34.30;95042.00;4965679;28;6993;-58
2024/01/20 07:30:37;;;;;;;;;;;;;;;26.17;34.67;95039.97;4991372;28;7396;-58
2024/01/20 07:33:03;;;;;;;;;;;;;;;26.15;34.17;95039.72;4982896;28;7156;-58
2024/01/20 07:35:29;;;;;;;;;;;;;;;26.15;34.61;95044.50;4968478;28;8786;-58
2024/01/20 07:38:25;;;;;;;;;;;;;;;26.14;34.34;95043.72;4984988;28;8436;-58
2024/01/20 07:40:53;;;;;;;;;;;;;;;26.10;34.60;95045.22;4915193;29;7078;-58
2024/01/20 07:43:20;;;;;;;;;;;;;;;26.11;34.39;95050.25;4912080;29;7136;-58
2024/01/20 07:45:46;;;;;;;;;;;;;;;26.09;34.53;95050.00;4916125;29;9550;-58
2024/01/20 07:48:12;;;;;;;;;;;;;;;26.05;34.91;95054.97;4931893;28;9088;-58
2024/01/20 07:50:40;;;;;;;;;;;;;;;26.05;34.62;95059.75;4974820;28;9083;-57
2024/01/20 07:53:09;;;;;;;;;;;;;;;26.10;34.84;95072.78;5009865;28;7154;-58
2024/01/20 07:55:36;;;;;;;;;;;;;;;26.10;34.69;95054.25;5029854;28;7194;-58
2024/01/20 07:58:06;;;;;;;;;;;;;;;26.15;35.28;95066.53;5000234;28;7071;-58
2024/01/20 08:00:32;;;;;;;;;;;;;;;26.17;35.07;95064.78;4995547;28;9261;-58
2024/01/20 08:03:02;;;;;;;;;;;;;;;26.18;34.53;95071.06;4996807;28;7219;-57
2024/01/20 08:05:28;;;;;;;;;;;;;;;26.13;35.24;95069.81;5025044;28;7847;-57
2024/01/20 08:07:54;;;;;;;;;;;;;;;26.17;34.22;95078.59;5030488;28;6941;-56
2024/01/20 08:10:29;;;;;;;;;;;;;;;26.11;35.47;95069.56;4993516;28;7231;-58
2024/01/20 08:13:05;;;;;;;;;;;;;;;26.22;35.38;95076.34;5005576;28;7458;-59
2024/01/20 08:15:48;;;;;;;;;;;;;;;26.25;35.25;95078.09;5003431;28;7161;-58
2024/01/20 08:18:14;;;;;;;;;;;;;;;26.30;34.69;95089.13;5039270;28;7255;-58
2024/01/20 08:20:52;;;;;;;;;;;;;;;26.24;33.80;95085.63;5065673;28;7239;-58
2024/01/20 08:23:18;;;;;;;;;;;;;;;26.16;34.93;95082.59;5056101;28;7248;-58
2024/01/20 08:25:58;;;;;;;;;;;;;;;26.19;34.92;95099.41;5072801;28;8704;-58
2024/01/20 08:28:32;;;;;;;;;;;;;;;26.20;34.95;95092.63;5059811;28;9421;-58
2024/01/20 08:30:58;;;;;;;;;;;;;;;26.26;35.34;95099.66;5050821;28;7415;-56
2024/01/20 08:33:23;;;;;;;;;;;;;;;26.30;35.16;95102.16;5062861;28;7063;-56
2024/01/20 08:35:50;;;;;;;;;;;;;;;26.27;35.23;95095.66;5068171;28;9149;-57
2024/01/20 08:38:26;;;;;;;;;;;;;;;26.28;35.17;95099.16;5048419;28;7396;-56
2024/01/20 08:41:12;;;;;;;;;;;;;;;26.28;35.27;95096.41;5054868;28;7744;-56
2024/01/20 08:43:44;;;;;;;;;;;;;;;26.25;35.01;95109.19;5043187;28;9111;-57
2024/01/20 08:46:10;;;;;;;;;;;;;;;26.23;35.01;95119.22;5068172;28;6986;-56
2024/01/20 08:48:36;;;;;;;;;;;;;;;26.25;35.38;95117.47;5042439;28;7436;-57
2024/01/20 08:51:02;;;;;;;;;;;;;;;26.24;35.74;95126.22;5056719;28;8964;-57
2024/01/20 08:53:28;;;;;;;;;;;;;;;26.28;35.42;95129.50;5070819;28;8696;-57
2024/01/20 08:55:56;;;;;;;;;;;;;;;26.29;35.26;95131.00;5068384;28;7277;-57
2024/01/20 08:58:22;;;;;;;;;;;;;;;26.28;35.72;95140.53;5043232;28;8836;-56
2024/01/20 09:00:50;;;;;;;;;;;;;;;26.28;35.32;95135.75;5056561;28;7125;-57
2024/01/20 09:03:16;;;;;;;;;;;;;;;26.32;35.84;95146.56;5052858;28;7160;-56
2024/01/20 09:05:42;;;;;;;;;;;;;;;26.35;35.92;95151.84;5054019;28;7682;-56
2024/01/20 09:08:10;;;;;;;;;;;;;;;26.39;35.93;95141.31;5059483;28;8732;-56
2024/01/20 09:10:37;;;;;;;;;;;;;;;26.41;35.79;95152.59;5051478;28;9071;-57
2024/01/20 09:13:04;;;;;;;;;;;;;;;26.43;36.00;95157.59;5066499;28;6912;-56
2024/01/20 09:15:30;;;;;;;;;;;;;;;26.43;36.05;95157.59;5053600;28;7529;-56
2024/01/20 09:18:01;;;;;;;;;;;;;;;26.40;35.85;95166.91;5060321;28;7311;-56
2024/01/20 09:20:34;;;;;;;;;;;;;;;26.45;35.64;95169.66;5055658;28;9142;-54
2024/01/20 09:23:02;;;;;;;;;;;;;;;26.47;36.06;95166.41;5056049;28;7412;-56
2024/01/20 09:25:32;;;;;;;;;;;;;;;26.48;35.66;95171.44;5035303;28;7291;-55
2024/01/20 09:27:59;;;;;;;;;;;;;;;26.47;35.47;95169.19;5053169;28;9184;-57
2024/01/20 09:30:26;;;;;;;;;;;;;;;26.46;35.73;95173.94;5052882;28;7230;-56
2024/01/20 09:32:55;;;;;;;;;;;;;;;26.47;35.84;95171.94;5058042;28;9227;-56
2024/01/20 09:35:23;;;;;;;;;;;;;;;26.44;35.80;95173.69;5052569;28;9565;-57
2024/01/20 09:37:50;;;;;;;;;;;;;;;26.48;35.45;95181.69;5039529;28;7069;-56
2024/01/20 09:40:49;;;;;;;;;;;;;;;26.48;35.68;95176.19;5037929;28;9030;-38
2024/01/20 09:43:29;;;;;;;;;;;;;;;26.47;36.01;95177.44;4984166;28;7480;-38
2024/01/20 09:45:57;;;;;;;;;;;;;;;26.46;36.17;95173.94;4976976;28;7251;-38
2024/01/20 09:48:24;;;;;;;;;;;;;;;26.45;36.41;95171.66;4985839;28;9238;-38
2024/01/20 09:50:52;;;;;;;;;;;;;;;26.49;36.15;95178.44;4978424;28;9366;-38
2024/01/20 09:53:18;;;;;;;;;;;;;;;26.54;36.05;95182.47;4984486;28;6981;-38
2024/01/20 09:55:55;;;;;;;;;;;;;;;26.56;36.17;95188.25;4993360;28;8197;-38
2024/01/20 09:58:23;;;;;;;;;;;;;;;26.59;35.60;95192.78;4967887;28;7725;-38
2024/01/20 10:00:52;;;;;;;;;;;;;;;26.59;36.42;95190.00;4988121;28;9094;-38
2024/01/20 10:03:26;;;;;;;;;;;;;;;26.63;36.11;95187.75;4976638;28;7527;-38
2024/01/20 10:05:53;;;;;;;;;;;;;;;26.63;35.99;95187.75;4976049;28;7563;-38
2024/01/20 10:09:03;;;;;;;;;;;;;;;26.68;36.13;95201.59;4974809;28;9344;-38
2024/01/20 10:11:59;;;;;;;;;;;;;;;26.72;35.77;95193.03;4964479;28;7004;-38
2024/01/20 10:14:52;;;;;;;;;;;;;;;26.73;36.33;95194.59;4900249;29;7276;-38
2024/01/20 10:17:36;;;;;;;;;;;;;;;26.73;35.90;95198.09;4916407;29;9055;-38
2024/01/20 10:20:21;;;;;;;;;;;;;;;26.75;35.99;95206.63;4955714;28;7718;-38
2024/01/20 10:23:12;;;;;;;;;;;;;;;26.77;35.83;95208.91;4950247;28;7658;-38
2024/01/20 10:25:38;;;;;;;;;;;;;;;26.77;36.00;95206.13;4973114;28;7598;-38
2024/01/20 10:28:09;;;;;;;;;;;;;;;26.78;36.31;95208.41;4976239;28;9013;-38
2024/01/20 10:30:39;;;;;;;;;;;;;;;26.78;36.21;95197.34;4975477;28;9365;-38
2024/01/20 10:33:18;;;;;;;;;;;;;;;26.77;36.06;95193.06;4970905;28;7009;-39
2024/01/20 10:35:55;;;;;;;;;;;;;;;26.73;35.88;95191.84;4995621;28;9384;-39
2024/01/20 10:38:23;;;;;;;;;;;;;;;26.75;35.63;95192.09;4970377;28;6864;-38
2024/01/20 10:41:04;;;;;;;;;;;;;;;26.77;35.71;95197.88;4988247;28;7240;-38
2024/01/20 10:43:39;;;;;;;;;;;;;;;26.79;36.10;95184.31;4981499;28;7343;-38
2024/01/20 10:46:17;;;;;;;;;;;;;;;26.79;35.46;95187.06;4975881;28;9566;-38
2024/01/20 10:48:50;;;;;;;;;;;;;;;26.73;35.40;95176.00;4987836;28;8090;-39
2024/01/20 10:51:25;;;;;;;;;;;;;;;26.72;35.46;95182.00;4999185;28;8710;-37
2024/01/20 10:53:52;;;;;;;;;;;;;;;26.70;35.47;95182.50;5054216;28;9080;-37
2024/01/20 10:56:48;;;;;;;;;;;;;;;26.68;35.66;95184.25;5052275;28;7227;-38
2024/01/20 10:59:17;;;;;;;;;;;;;;;26.65;35.92;95185.25;4971989;28;7074;-37
2024/01/20 11:01:53;;;;;;;;;;;;;;;26.68;35.48;95185.03;4967179;28;9452;-37
2024/01/20 11:04:19;;;;;;;;;;;;;;;26.68;35.80;95185.03;4984075;28;7283;-37
2024/01/20 11:06:48;;;;;;;;;;;;;;;26.66;36.44;95181.25;4979400;28;7138;-37
2024/01/20 11:09:35;;;;;;;;;;;;;;;26.68;35.71;95171.22;4967316;28;8878;-37
2024/01/20 11:12:09;;;;;;;;;;;;;;;26.73;35.24;95178.78;4971751;28;9026;-37
2024/01/20 11:15:11;;;;;;;;;;;;;;;26.73;35.30;95170.50;4963698;28;8898;-37
2024/01/20 11:17:37;;;;;;;;;;;;;;;26.72;35.30;95168.97;4930295;28;7144;-37
2024/01/20 11:20:12;;;;;;;;;;;;;;;26.71;35.93;95164.69;4931455;28;7270;-37
2024/01/20 11:22:55;;;;;;;;;;;;;;;26.74;35.53;95165.72;4931732;29;8881;-37
2024/01/20 11:25:24;;;;;;;;;;;;;;;26.76;35.98;95160.47;4933765;28;7055;-37
2024/01/20 11:27:58;;;;;;;;;;;;;;;26.79;35.51;95153.97;4935538;28;7089;-37
2024/01/20 11:30:36;;;;;;;;;;;;;;;26.79;35.59;95151.19;4934175;28;7012;-37
2024/01/20 11:33:12;;;;;;;;;;;;;;;26.83;35.52;95154.47;4925888;28;7219;-37
2024/01/20 11:35:39;;;;;;;;;;;;;;;26.85;35.86;95157.47;4950260;28;9299;-37
2024/01/20 11:38:19;;;;;;;;;;;;;;;26.87;35.70;95163.25;4976567;28;7218;-37
2024/01/20 11:41:11;;;;;;;;;;;;;;;26.87;35.68;95152.97;5003148;28;9090;-37
2024/01/20 11:43:58;;;;;;;;;;;;;;;26.89;35.87;95158.72;4981253;28;9427;-37
2024/01/20 11:46:26;;;;;;;;;;;;;;;26.89;36.09;95155.97;4982309;28;7871;-37
2024/01/20 11:48:54;;;;;;;;;;;;;;;26.87;35.55;95146.69;4993182;28;9121;-37
2024/01/20 11:51:22;;;;;;;;;;;;;;;26.90;35.66;95149.19;4972869;28;7220;-38
2024/01/20 11:53:48;;;;;;;;;;;;;;;26.89;35.38;95146.94;5002624;28;7269;-38
2024/01/20 11:56:16;;;;;;;;;;;;;;;26.92;35.66;95145.94;5047677;28;8188;-37
2024/01/20 11:58:52;;;;;;;;;;;;;;;26.96;35.76;95137.38;5050846;28;7248;-37
2024/01/20 12:01:19;;;;;;;;;;;;;;;26.97;35.51;95136.16;5031833;28;9319;-38
2024/01/20 12:03:45;;;;;;;;;;;;;;;26.97;35.26;95142.41;5050424;28;7003;-38
2024/01/20 12:06:14;;;;;;;;;;;;;;;27.01;35.42;95144.94;5027391;28;9038;-38
2024/01/20 12:08:44;;;;;;;;;;;;;;;27.02;35.36;95144.41;5048046;28;9291;-38
2024/01/20 12:11:23;;;;;;;;;;;;;;;27.03;35.20;95137.66;5047574;28;7278;-38
2024/01/20 12:13:50;;;;;;;;;;;;;;;27.04;35.83;95150.19;5048767;28;8657;-38
2024/01/20 12:16:20;;;;;;;;;;;;;;;27.07;35.30;95149.19;5034537;28;7277;-38
2024/01/20 12:18:49;;;;;;;;;;;;;;;27.03;35.22;95143.19;5050093;28;7210;-38
2024/01/20 12:21:25;;;;;;;;;;;;;;;27.08;35.38;95147.94;5033043;28;7248;-38
2024/01/20 12:23:51;;;;;;;;;;;;;;;27.10;35.18;95150.94;5050617;28;7022;-38
2024/01/20 12:26:24;;;;;;;;;;;;;;;27.13;35.57;95152.69;5067490;28;8678;-38
2024/01/20 12:28:55;;;;;;;;;;;;;;;27.15;35.38;95150.19;5033244;28;7343;-38
2024/01/20 12:31:30;;;;;;;;;;;;;;;27.16;35.46;95140.66;5032140;28;7223;-38
2024/01/20 12:33:57;;;;;;;;;;;;;;;27.20;35.62;95132.09;5050469;28;9116;-38
2024/01/20 12:36:23;;;;;;;;;;;;;;;27.22;35.41;95126.84;5047524;28;7281;-38
2024/01/20 12:38:49;;;;;;;;;;;;;;;27.19;35.56;95114.03;5060419;28;6999;-38
2024/01/20 12:41:21;;;;;;;;;;;;;;;27.19;35.62;95108.50;5062506;28;7215;-38
2024/01/20 12:43:54;;;;;;;;;;;;;;;27.16;35.78;95113.03;5063740;28;8850;-38
2024/01/20 12:46:40;;;;;;;;;;;;;;;27.19;35.55;95111.25;5056413;28;9124;-38
2024/01/20 12:49:10;;;;;;;;;;;;;;;27.17;35.46;95103.50;5048835;28;7072;-38
2024/01/20 12:51:37;;;;;;;;;;;;;;;27.24;35.45;95091.16;5053390;28;7268;-38
2024/01/20 12:54:08;;;;;;;;;;;;;;;27.26;35.13;95092.19;5052815;28;6988;-38
2024/01/20 12:57:06;;;;;;;;;;;;;;;27.29;34.97;95088.41;5070781;28;7008;-38
2024/01/20 12:59:32;;;;;;;;;;;;;;;27.30;34.26;95089.91;5016228;28;7079;-38
2024/01/20 13:02:01;;;;;;;;;;;;;;;27.29;34.49;95088.41;5057145;28;7330;-38
2024/01/20 13:04:27;;;;;;;;;;;;;;;27.29;34.63;95093.19;5058764;28;7010;-39
2024/01/20 13:06:52;;;;;;;;;;;;;;;27.25;34.79;95082.38;5054317;28;7299;-39
2024/01/20 13:09:21;;;;;;;;;;;;;;;27.27;35.02;95084.66;5036652;28;7155;-37
2024/01/20 13:11:48;;;;;;;;;;;;;;;27.28;34.89;95089.66;5077939;28;9023;-37
2024/01/20 13:14:14;;;;;;;;;;;;;;;27.25;35.14;95087.91;5041125;28;7134;-37
2024/01/20 13:16:52;;;;;;;;;;;;;;;27.30;34.87;95081.63;5057370;28;9130;-37
2024/01/20 13:19:24;;;;;;;;;;;;;;;27.35;34.75;95091.94;5037011;28;7109;-37
2024/01/20 13:22:01;;;;;;;;;;;;;;;27.35;34.54;95086.41;5056329;28;7619;-38
2024/01/20 13:24:28;;;;;;;;;;;;;;;27.40;34.71;95095.94;5071446;28;9195;-37